sensor_id;sensor_type;location;lat;lon;timestamp;P1;durP1;ratioP1;P2;durP2;ratioP2
32333;SDS011;18810;53.040;8.850;2022-08-26T00:00:31;22.67;;;14.23;;
32333;SDS011;18810;53.040;8.850;2022-08-26T00:02:58;24.58;;;15.00;;
32333;SDS011;18810;53.040;8.850;2022-08-26T00:05:24;25.20;;;15.05;;
32333;SDS011;18810;53.040;8.850;2022-08-26T00:07:50;24.20;;;14.77;;
32333;SDS011;18810;53.040;8.850;2022-08-26T00:10:17;24.05;;;14.52;;
32333;SDS011;18810;53.040;8.850;2022-08-26T00:12:44;26.40;;;15.48;;
32333;SDS011;18810;53.040;8.850;2022-08-26T00:15:12;23.25;;;14.88;;
32333;SDS011;18810;53.040;8.850;2022-08-26T00:17:40;21.25;;;15.63;;
32333;SDS011;18810;53.040;8.850;2022-08-26T00:20:07;26.52;;;15.27;;
32333;SDS011;18810;53.040;8.850;2022-08-26T00:22:34;24.02;;;15.57;;
32333;SDS011;18810;53.040;8.850;2022-08-26T00:25:00;26.38;;;15.63;;
32333;SDS011;18810;53.040;8.850;2022-08-26T00:27:26;22.85;;;15.68;;
32333;SDS011;18810;53.040;8.850;2022-08-26T00:29:52;24.00;;;14.90;;
32333;SDS011;18810;53.040;8.850;2022-08-26T00:32:18;23.15;;;15.48;;
32333;SDS011;18810;53.040;8.850;2022-08-26T00:34:44;22.55;;;16.00;;
32333;SDS011;18810;53.040;8.850;2022-08-26T00:37:10;22.85;;;16.25;;
32333;SDS011;18810;53.040;8.850;2022-08-26T00:39:36;23.85;;;16.52;;
32333;SDS011;18810;53.040;8.850;2022-08-26T00:42:03;22.48;;;14.57;;
32333;SDS011;18810;53.040;8.850;2022-08-26T00:44:29;21.20;;;15.57;;
32333;SDS011;18810;53.040;8.850;2022-08-26T00:46:56;24.58;;;15.40;;
32333;SDS011;18810;53.040;8.850;2022-08-26T00:49:30;26.25;;;16.60;;
32333;SDS011;18810;53.040;8.850;2022-08-26T00:51:59;25.73;;;15.52;;
32333;SDS011;18810;53.040;8.850;2022-08-26T00:54:27;23.98;;;16.33;;
32333;SDS011;18810;53.040;8.850;2022-08-26T00:56:59;22.98;;;16.20;;
32333;SDS011;18810;53.040;8.850;2022-08-26T00:59:26;23.00;;;15.60;;
32333;SDS011;18810;53.040;8.850;2022-08-26T01:01:54;23.00;;;15.82;;
32333;SDS011;18810;53.040;8.850;2022-08-26T01:04:21;24.20;;;16.27;;
32333;SDS011;18810;53.040;8.850;2022-08-26T01:06:49;24.48;;;16.42;;
32333;SDS011;18810;53.040;8.850;2022-08-26T01:09:17;24.77;;;16.80;;
32333;SDS011;18810;53.040;8.850;2022-08-26T01:11:44;23.15;;;16.02;;
32333;SDS011;18810;53.040;8.850;2022-08-26T01:14:12;26.08;;;16.70;;
32333;SDS011;18810;53.040;8.850;2022-08-26T01:16:39;24.50;;;16.58;;
32333;SDS011;18810;53.040;8.850;2022-08-26T01:19:13;24.38;;;16.80;;
32333;SDS011;18810;53.040;8.850;2022-08-26T01:21:49;19.77;;;15.70;;
32333;SDS011;18810;53.040;8.850;2022-08-26T01:24:20;31.20;;;17.50;;
32333;SDS011;18810;53.040;8.850;2022-08-26T01:26:47;22.92;;;15.63;;
32333;SDS011;18810;53.040;8.850;2022-08-26T01:29:16;19.73;;;16.70;;
32333;SDS011;18810;53.040;8.850;2022-08-26T01:32:02;24.05;;;16.75;;
32333;SDS011;18810;53.040;8.850;2022-08-26T01:34:30;25.08;;;15.95;;
32333;SDS011;18810;53.040;8.850;2022-08-26T01:39:36;22.20;;;17.17;;
32333;SDS011;18810;53.040;8.850;2022-08-26T01:42:04;22.92;;;16.67;;
32333;SDS011;18810;53.040;8.850;2022-08-26T01:44:34;25.02;;;17.48;;
32333;SDS011;18810;53.040;8.850;2022-08-26T01:47:05;25.13;;;17.33;;
32333;SDS011;18810;53.040;8.850;2022-08-26T01:49:34;24.30;;;17.02;;
32333;SDS011;18810;53.040;8.850;2022-08-26T01:52:00;25.83;;;18.50;;
32333;SDS011;18810;53.040;8.850;2022-08-26T01:54:28;23.83;;;18.10;;
32333;SDS011;18810;53.040;8.850;2022-08-26T01:56:54;29.05;;;17.75;;
32333;SDS011;18810;53.040;8.850;2022-08-26T01:59:20;22.92;;;16.75;;
32333;SDS011;18810;53.040;8.850;2022-08-26T02:01:48;30.65;;;18.00;;
32333;SDS011;18810;53.040;8.850;2022-08-26T02:06:44;26.67;;;17.23;;
32333;SDS011;18810;53.040;8.850;2022-08-26T02:09:10;29.20;;;17.48;;
32333;SDS011;18810;53.040;8.850;2022-08-26T02:11:36;26.35;;;17.35;;
32333;SDS011;18810;53.040;8.850;2022-08-26T02:14:06;26.15;;;17.13;;
32333;SDS011;18810;53.040;8.850;2022-08-26T02:16:39;26.92;;;17.45;;
32333;SDS011;18810;53.040;8.850;2022-08-26T02:19:10;26.13;;;18.65;;
32333;SDS011;18810;53.040;8.850;2022-08-26T02:21:39;22.85;;;17.50;;
32333;SDS011;18810;53.040;8.850;2022-08-26T02:24:07;26.10;;;18.77;;
32333;SDS011;18810;53.040;8.850;2022-08-26T02:26:34;26.55;;;16.90;;
32333;SDS011;18810;53.040;8.850;2022-08-26T02:29:01;26.30;;;18.23;;
32333;SDS011;18810;53.040;8.850;2022-08-26T02:31:31;31.27;;;18.67;;
32333;SDS011;18810;53.040;8.850;2022-08-26T02:34:09;25.58;;;17.63;;
32333;SDS011;18810;53.040;8.850;2022-08-26T02:36:37;27.07;;;18.17;;
32333;SDS011;18810;53.040;8.850;2022-08-26T02:39:03;25.40;;;18.17;;
32333;SDS011;18810;53.040;8.850;2022-08-26T02:44:22;24.20;;;17.48;;
32333;SDS011;18810;53.040;8.850;2022-08-26T02:46:47;23.25;;;17.48;;
32333;SDS011;18810;53.040;8.850;2022-08-26T02:49:14;24.85;;;17.60;;
32333;SDS011;18810;53.040;8.850;2022-08-26T02:51:40;22.08;;;15.93;;
32333;SDS011;18810;53.040;8.850;2022-08-26T02:54:06;26.15;;;17.60;;
32333;SDS011;18810;53.040;8.850;2022-08-26T02:56:32;22.00;;;16.85;;
32333;SDS011;18810;53.040;8.850;2022-08-26T02:58:58;21.88;;;16.75;;
32333;SDS011;18810;53.040;8.850;2022-08-26T03:01:25;24.98;;;18.25;;
32333;SDS011;18810;53.040;8.850;2022-08-26T03:03:54;19.40;;;16.27;;
32333;SDS011;18810;53.040;8.850;2022-08-26T03:06:20;22.60;;;16.52;;
32333;SDS011;18810;53.040;8.850;2022-08-26T03:08:46;25.17;;;16.85;;
32333;SDS011;18810;53.040;8.850;2022-08-26T03:11:12;22.90;;;17.50;;
32333;SDS011;18810;53.040;8.850;2022-08-26T03:13:39;23.67;;;17.55;;
32333;SDS011;18810;53.040;8.850;2022-08-26T03:16:05;26.73;;;17.95;;
32333;SDS011;18810;53.040;8.850;2022-08-26T03:18:32;24.13;;;17.75;;
32333;SDS011;18810;53.040;8.850;2022-08-26T03:21:03;23.45;;;16.95;;
32333;SDS011;18810;53.040;8.850;2022-08-26T03:23:31;29.10;;;17.98;;
32333;SDS011;18810;53.040;8.850;2022-08-26T03:25:57;24.17;;;17.90;;
32333;SDS011;18810;53.040;8.850;2022-08-26T03:28:22;29.52;;;19.20;;
32333;SDS011;18810;53.040;8.850;2022-08-26T03:30:48;28.13;;;18.70;;
32333;SDS011;18810;53.040;8.850;2022-08-26T03:33:14;25.23;;;18.90;;
32333;SDS011;18810;53.040;8.850;2022-08-26T03:35:40;25.02;;;17.77;;
32333;SDS011;18810;53.040;8.850;2022-08-26T03:38:08;24.20;;;18.15;;
32333;SDS011;18810;53.040;8.850;2022-08-26T03:46:12;26.10;;;18.83;;
32333;SDS011;18810;53.040;8.850;2022-08-26T03:48:38;30.58;;;19.15;;
32333;SDS011;18810;53.040;8.850;2022-08-26T03:51:10;25.92;;;18.92;;
32333;SDS011;18810;53.040;8.850;2022-08-26T03:53:40;22.88;;;18.25;;
32333;SDS011;18810;53.040;8.850;2022-08-26T03:56:07;29.75;;;20.02;;
32333;SDS011;18810;53.040;8.850;2022-08-26T03:58:33;29.45;;;19.38;;
32333;SDS011;18810;53.040;8.850;2022-08-26T04:00:59;28.20;;;17.10;;
32333;SDS011;18810;53.040;8.850;2022-08-26T04:03:25;25.05;;;20.10;;
32333;SDS011;18810;53.040;8.850;2022-08-26T04:06:09;27.55;;;19.35;;
32333;SDS011;18810;53.040;8.850;2022-08-26T04:08:36;28.40;;;20.17;;
32333;SDS011;18810;53.040;8.850;2022-08-26T04:11:01;27.67;;;18.90;;
32333;SDS011;18810;53.040;8.850;2022-08-26T04:13:27;30.60;;;20.25;;
32333;SDS011;18810;53.040;8.850;2022-08-26T04:15:53;28.67;;;19.42;;
32333;SDS011;18810;53.040;8.850;2022-08-26T04:18:19;30.30;;;19.63;;
32333;SDS011;18810;53.040;8.850;2022-08-26T04:20:45;34.38;;;20.50;;
32333;SDS011;18810;53.040;8.850;2022-08-26T04:23:14;28.23;;;19.77;;
32333;SDS011;18810;53.040;8.850;2022-08-26T04:25:40;27.92;;;19.88;;
32333;SDS011;18810;53.040;8.850;2022-08-26T04:28:07;26.70;;;20.10;;
32333;SDS011;18810;53.040;8.850;2022-08-26T04:30:35;33.25;;;20.90;;
32333;SDS011;18810;53.040;8.850;2022-08-26T04:33:01;25.98;;;19.90;;
32333;SDS011;18810;53.040;8.850;2022-08-26T04:35:28;30.95;;;20.13;;
32333;SDS011;18810;53.040;8.850;2022-08-26T04:37:54;34.53;;;20.42;;
32333;SDS011;18810;53.040;8.850;2022-08-26T04:40:20;28.10;;;20.42;;
32333;SDS011;18810;53.040;8.850;2022-08-26T04:45:54;28.27;;;20.50;;
32333;SDS011;18810;53.040;8.850;2022-08-26T04:48:26;40.92;;;21.38;;
32333;SDS011;18810;53.040;8.850;2022-08-26T04:50:56;33.25;;;20.88;;
32333;SDS011;18810;53.040;8.850;2022-08-26T04:53:24;27.55;;;20.42;;
32333;SDS011;18810;53.040;8.850;2022-08-26T04:55:50;29.98;;;20.15;;
32333;SDS011;18810;53.040;8.850;2022-08-26T04:58:17;30.13;;;20.15;;
32333;SDS011;18810;53.040;8.850;2022-08-26T05:00:44;29.92;;;19.83;;
32333;SDS011;18810;53.040;8.850;2022-08-26T05:03:12;27.55;;;19.27;;
32333;SDS011;18810;53.040;8.850;2022-08-26T05:05:39;28.00;;;20.50;;
32333;SDS011;18810;53.040;8.850;2022-08-26T05:08:05;35.45;;;21.80;;
32333;SDS011;18810;53.040;8.850;2022-08-26T05:10:31;31.88;;;20.58;;
32333;SDS011;18810;53.040;8.850;2022-08-26T05:12:58;30.08;;;21.52;;
32333;SDS011;18810;53.040;8.850;2022-08-26T05:15:24;28.63;;;19.77;;
32333;SDS011;18810;53.040;8.850;2022-08-26T05:17:50;27.27;;;20.98;;
32333;SDS011;18810;53.040;8.850;2022-08-26T05:20:15;29.48;;;20.20;;
32333;SDS011;18810;53.040;8.850;2022-08-26T05:22:41;33.85;;;20.88;;
32333;SDS011;18810;53.040;8.850;2022-08-26T05:25:07;33.92;;;20.55;;
32333;SDS011;18810;53.040;8.850;2022-08-26T05:27:33;32.20;;;19.90;;
32333;SDS011;18810;53.040;8.850;2022-08-26T05:29:58;31.88;;;21.02;;
32333;SDS011;18810;53.040;8.850;2022-08-26T05:32:24;28.58;;;18.95;;
32333;SDS011;18810;53.040;8.850;2022-08-26T05:34:53;28.17;;;18.45;;
32333;SDS011;18810;53.040;8.850;2022-08-26T05:37:21;25.35;;;18.35;;
32333;SDS011;18810;53.040;8.850;2022-08-26T05:39:47;30.13;;;18.92;;
32333;SDS011;18810;53.040;8.850;2022-08-26T05:42:14;28.45;;;18.70;;
32333;SDS011;18810;53.040;8.850;2022-08-26T05:44:40;25.23;;;18.10;;
32333;SDS011;18810;53.040;8.850;2022-08-26T05:47:06;30.17;;;17.83;;
32333;SDS011;18810;53.040;8.850;2022-08-26T05:49:32;26.55;;;18.63;;
32333;SDS011;18810;53.040;8.850;2022-08-26T05:51:57;27.23;;;17.55;;
32333;SDS011;18810;53.040;8.850;2022-08-26T05:54:23;25.35;;;18.38;;
32333;SDS011;18810;53.040;8.850;2022-08-26T05:56:49;28.83;;;18.77;;
32333;SDS011;18810;53.040;8.850;2022-08-26T05:59:15;24.88;;;17.92;;
32333;SDS011;18810;53.040;8.850;2022-08-26T06:01:42;28.75;;;19.58;;
32333;SDS011;18810;53.040;8.850;2022-08-26T06:04:08;32.97;;;19.42;;
32333;SDS011;18810;53.040;8.850;2022-08-26T06:06:35;32.50;;;19.90;;
32333;SDS011;18810;53.040;8.850;2022-08-26T06:09:02;26.85;;;18.92;;
32333;SDS011;18810;53.040;8.850;2022-08-26T06:11:29;38.78;;;20.95;;
32333;SDS011;18810;53.040;8.850;2022-08-26T06:13:57;27.38;;;18.27;;
32333;SDS011;18810;53.040;8.850;2022-08-26T06:16:25;29.52;;;18.42;;
32333;SDS011;18810;53.040;8.850;2022-08-26T06:18:51;25.80;;;18.45;;
32333;SDS011;18810;53.040;8.850;2022-08-26T06:21:24;31.77;;;19.33;;
32333;SDS011;18810;53.040;8.850;2022-08-26T06:23:54;26.60;;;17.05;;
32333;SDS011;18810;53.040;8.850;2022-08-26T06:26:40;24.98;;;18.20;;
32333;SDS011;18810;53.040;8.850;2022-08-26T06:29:07;31.60;;;20.45;;
32333;SDS011;18810;53.040;8.850;2022-08-26T06:31:33;34.25;;;18.67;;
32333;SDS011;18810;53.040;8.850;2022-08-26T06:34:00;32.78;;;18.90;;
32333;SDS011;18810;53.040;8.850;2022-08-26T06:36:27;26.92;;;18.52;;
32333;SDS011;18810;53.040;8.850;2022-08-26T06:38:55;31.63;;;18.60;;
32333;SDS011;18810;53.040;8.850;2022-08-26T06:41:37;25.97;;;19.13;;
32333;SDS011;18810;53.040;8.850;2022-08-26T06:44:04;31.75;;;16.38;;
32333;SDS011;18810;53.040;8.850;2022-08-26T06:46:32;27.75;;;18.48;;
32333;SDS011;18810;53.040;8.850;2022-08-26T06:48:58;33.30;;;18.67;;
32333;SDS011;18810;53.040;8.850;2022-08-26T06:51:28;28.23;;;18.98;;
32333;SDS011;18810;53.040;8.850;2022-08-26T06:53:56;30.90;;;18.58;;
32333;SDS011;18810;53.040;8.850;2022-08-26T06:56:39;26.17;;;16.98;;
32333;SDS011;18810;53.040;8.850;2022-08-26T06:59:07;33.13;;;18.52;;
32333;SDS011;18810;53.040;8.850;2022-08-26T07:01:34;23.60;;;16.45;;
32333;SDS011;18810;53.040;8.850;2022-08-26T07:04:03;27.42;;;16.75;;
32333;SDS011;18810;53.040;8.850;2022-08-26T07:06:34;28.17;;;17.63;;
32333;SDS011;18810;53.040;8.850;2022-08-26T07:09:03;24.42;;;18.17;;
32333;SDS011;18810;53.040;8.850;2022-08-26T07:11:31;26.42;;;16.60;;
32333;SDS011;18810;53.040;8.850;2022-08-26T07:13:58;24.00;;;16.13;;
32333;SDS011;18810;53.040;8.850;2022-08-26T07:16:25;25.90;;;15.88;;
32333;SDS011;18810;53.040;8.850;2022-08-26T07:18:51;27.15;;;16.20;;
32333;SDS011;18810;53.040;8.850;2022-08-26T07:21:18;27.45;;;15.57;;
32333;SDS011;18810;53.040;8.850;2022-08-26T07:23:44;24.10;;;15.65;;
32333;SDS011;18810;53.040;8.850;2022-08-26T07:26:11;23.75;;;15.35;;
32333;SDS011;18810;53.040;8.850;2022-08-26T07:28:40;23.40;;;15.95;;
32333;SDS011;18810;53.040;8.850;2022-08-26T07:31:07;23.30;;;14.85;;
32333;SDS011;18810;53.040;8.850;2022-08-26T07:33:35;24.60;;;14.90;;
32333;SDS011;18810;53.040;8.850;2022-08-26T07:36:02;21.33;;;15.63;;
32333;SDS011;18810;53.040;8.850;2022-08-26T07:38:29;26.27;;;14.55;;
32333;SDS011;18810;53.040;8.850;2022-08-26T07:43:50;20.92;;;13.43;;
32333;SDS011;18810;53.040;8.850;2022-08-26T07:46:16;22.67;;;14.57;;
32333;SDS011;18810;53.040;8.850;2022-08-26T07:48:43;19.77;;;13.60;;
32333;SDS011;18810;53.040;8.850;2022-08-26T07:51:13;26.38;;;14.05;;
32333;SDS011;18810;53.040;8.850;2022-08-26T07:53:41;23.25;;;15.93;;
32333;SDS011;18810;53.040;8.850;2022-08-26T07:56:07;23.77;;;14.65;;
32333;SDS011;18810;53.040;8.850;2022-08-26T07:58:33;21.85;;;14.25;;
32333;SDS011;18810;53.040;8.850;2022-08-26T08:00:59;22.38;;;14.65;;
32333;SDS011;18810;53.040;8.850;2022-08-26T08:03:24;23.95;;;14.00;;
32333;SDS011;18810;53.040;8.850;2022-08-26T08:05:50;22.13;;;14.02;;
32333;SDS011;18810;53.040;8.850;2022-08-26T08:08:16;14.32;;;11.90;;
32333;SDS011;18810;53.040;8.850;2022-08-26T08:10:42;19.35;;;12.02;;
32333;SDS011;18810;53.040;8.850;2022-08-26T08:13:09;15.38;;;11.52;;
32333;SDS011;18810;53.040;8.850;2022-08-26T08:15:35;22.27;;;12.90;;
32333;SDS011;18810;53.040;8.850;2022-08-26T08:18:02;22.10;;;13.38;;
32333;SDS011;18810;53.040;8.850;2022-08-26T08:20:28;14.57;;;10.98;;
32333;SDS011;18810;53.040;8.850;2022-08-26T08:22:54;16.35;;;11.32;;
32333;SDS011;18810;53.040;8.850;2022-08-26T08:25:20;17.08;;;13.07;;
32333;SDS011;18810;53.040;8.850;2022-08-26T08:27:46;20.45;;;12.93;;
32333;SDS011;18810;53.040;8.850;2022-08-26T08:30:13;21.17;;;12.82;;
32333;SDS011;18810;53.040;8.850;2022-08-26T08:32:41;19.20;;;13.05;;
32333;SDS011;18810;53.040;8.850;2022-08-26T08:35:07;21.00;;;13.20;;
32333;SDS011;18810;53.040;8.850;2022-08-26T08:37:34;19.40;;;12.45;;
32333;SDS011;18810;53.040;8.850;2022-08-26T08:40:01;18.50;;;11.60;;
32333;SDS011;18810;53.040;8.850;2022-08-26T08:42:42;20.73;;;11.48;;
32333;SDS011;18810;53.040;8.850;2022-08-26T08:45:59;13.48;;;11.68;;
32333;SDS011;18810;53.040;8.850;2022-08-26T08:48:19;16.27;;;11.50;;
32333;SDS011;18810;53.040;8.850;2022-08-26T08:50:50;21.55;;;12.80;;
32333;SDS011;18810;53.040;8.850;2022-08-26T08:56:04;23.63;;;13.00;;
32333;SDS011;18810;53.040;8.850;2022-08-26T09:01:22;20.52;;;12.13;;
32333;SDS011;18810;53.040;8.850;2022-08-26T09:06:36;20.00;;;11.63;;
32333;SDS011;18810;53.040;8.850;2022-08-26T09:09:02;19.25;;;11.68;;
32333;SDS011;18810;53.040;8.850;2022-08-26T09:11:28;23.60;;;11.70;;
32333;SDS011;18810;53.040;8.850;2022-08-26T09:13:54;17.75;;;11.38;;
32333;SDS011;18810;53.040;8.850;2022-08-26T09:16:23;17.52;;;10.80;;
32333;SDS011;18810;53.040;8.850;2022-08-26T09:21:54;21.08;;;11.13;;
32333;SDS011;18810;53.040;8.850;2022-08-26T09:24:21;20.70;;;11.52;;
32333;SDS011;18810;53.040;8.850;2022-08-26T09:26:46;20.40;;;11.18;;
32333;SDS011;18810;53.040;8.850;2022-08-26T09:29:26;17.27;;;11.65;;
32333;SDS011;18810;53.040;8.850;2022-08-26T09:37:49;15.70;;;10.40;;
32333;SDS011;18810;53.040;8.850;2022-08-26T09:40:23;19.00;;;10.52;;
32333;SDS011;18810;53.040;8.850;2022-08-26T09:45:46;17.38;;;10.75;;
32333;SDS011;18810;53.040;8.850;2022-08-26T09:48:34;17.55;;;10.80;;
32333;SDS011;18810;53.040;8.850;2022-08-26T09:51:06;14.65;;;8.85;;
32333;SDS011;18810;53.040;8.850;2022-08-26T09:53:55;15.07;;;9.38;;
32333;SDS011;18810;53.040;8.850;2022-08-26T09:56:27;19.00;;;9.57;;
32333;SDS011;18810;53.040;8.850;2022-08-26T09:58:56;20.80;;;9.88;;
32333;SDS011;18810;53.040;8.850;2022-08-26T10:04:09;18.67;;;9.80;;
32333;SDS011;18810;53.040;8.850;2022-08-26T10:06:42;13.13;;;8.85;;
32333;SDS011;18810;53.040;8.850;2022-08-26T10:09:19;19.27;;;10.02;;
32333;SDS011;18810;53.040;8.850;2022-08-26T10:11:50;13.57;;;9.32;;
32333;SDS011;18810;53.040;8.850;2022-08-26T10:14:26;15.65;;;10.05;;
32333;SDS011;18810;53.040;8.850;2022-08-26T10:19:35;15.18;;;10.07;;
32333;SDS011;18810;53.040;8.850;2022-08-26T10:22:06;25.70;;;10.05;;
32333;SDS011;18810;53.040;8.850;2022-08-26T10:24:43;15.88;;;9.13;;
32333;SDS011;18810;53.040;8.850;2022-08-26T10:27:26;14.70;;;9.63;;
32333;SDS011;18810;53.040;8.850;2022-08-26T10:29:56;19.95;;;10.18;;
32333;SDS011;18810;53.040;8.850;2022-08-26T10:32:32;17.15;;;9.55;;
32333;SDS011;18810;53.040;8.850;2022-08-26T10:35:03;19.42;;;9.32;;
32333;SDS011;18810;53.040;8.850;2022-08-26T10:37:33;16.85;;;11.18;;
32333;SDS011;18810;53.040;8.850;2022-08-26T10:40:05;16.10;;;9.13;;
32333;SDS011;18810;53.040;8.850;2022-08-26T10:42:50;18.17;;;9.65;;
32333;SDS011;18810;53.040;8.850;2022-08-26T10:45:30;16.13;;;9.00;;
32333;SDS011;18810;53.040;8.850;2022-08-26T10:48:11;18.08;;;9.18;;
32333;SDS011;18810;53.040;8.850;2022-08-26T10:50:45;14.00;;;8.75;;
32333;SDS011;18810;53.040;8.850;2022-08-26T10:53:16;22.92;;;9.32;;
32333;SDS011;18810;53.040;8.850;2022-08-26T10:55:47;15.88;;;8.90;;
32333;SDS011;18810;53.040;8.850;2022-08-26T11:01:09;13.40;;;9.10;;
32333;SDS011;18810;53.040;8.850;2022-08-26T11:06:34;18.83;;;9.85;;
32333;SDS011;18810;53.040;8.850;2022-08-26T11:09:02;17.73;;;9.95;;
32333;SDS011;18810;53.040;8.850;2022-08-26T11:24:42;23.38;;;10.52;;
32333;SDS011;18810;53.040;8.850;2022-08-26T11:40:11;18.15;;;10.40;;
32333;SDS011;18810;53.040;8.850;2022-08-26T11:42:53;19.55;;;10.80;;
32333;SDS011;18810;53.040;8.850;2022-08-26T11:45:39;19.80;;;10.70;;
32333;SDS011;18810;53.040;8.850;2022-08-26T11:48:28;17.73;;;10.07;;
32333;SDS011;18810;53.040;8.850;2022-08-26T11:51:07;19.08;;;10.75;;
32333;SDS011;18810;53.040;8.850;2022-08-26T11:53:36;19.52;;;10.95;;
32333;SDS011;18810;53.040;8.850;2022-08-26T11:56:07;19.65;;;10.98;;
32333;SDS011;18810;53.040;8.850;2022-08-26T11:58:39;15.90;;;9.95;;
32333;SDS011;18810;53.040;8.850;2022-08-26T12:01:07;19.70;;;11.38;;
32333;SDS011;18810;53.040;8.850;2022-08-26T12:06:13;17.38;;;10.43;;
32333;SDS011;18810;53.040;8.850;2022-08-26T12:08:50;17.05;;;9.80;;
32333;SDS011;18810;53.040;8.850;2022-08-26T12:11:25;17.15;;;9.93;;
32333;SDS011;18810;53.040;8.850;2022-08-26T12:13:56;16.52;;;10.43;;
32333;SDS011;18810;53.040;8.850;2022-08-26T12:16:23;19.52;;;9.85;;
32333;SDS011;18810;53.040;8.850;2022-08-26T12:18:51;13.85;;;9.50;;
32333;SDS011;18810;53.040;8.850;2022-08-26T12:21:21;16.90;;;10.48;;
32333;SDS011;18810;53.040;8.850;2022-08-26T12:23:59;15.55;;;9.63;;
32333;SDS011;18810;53.040;8.850;2022-08-26T12:29:06;16.85;;;10.18;;
32333;SDS011;18810;53.040;8.850;2022-08-26T12:31:39;15.55;;;10.85;;
32333;SDS011;18810;53.040;8.850;2022-08-26T12:34:07;20.35;;;11.05;;
32333;SDS011;18810;53.040;8.850;2022-08-26T12:37:10;16.02;;;10.73;;
32333;SDS011;18810;53.040;8.850;2022-08-26T12:39:33;21.58;;;11.38;;
32333;SDS011;18810;53.040;8.850;2022-08-26T12:42:03;13.77;;;10.55;;
32333;SDS011;18810;53.040;8.850;2022-08-26T12:44:46;16.70;;;11.07;;
32333;SDS011;18810;53.040;8.850;2022-08-26T12:55:43;21.50;;;12.43;;
32333;SDS011;18810;53.040;8.850;2022-08-26T12:58:24;15.02;;;11.95;;
32333;SDS011;18810;53.040;8.850;2022-08-26T13:06:09;22.02;;;14.65;;
32333;SDS011;18810;53.040;8.850;2022-08-26T13:14:06;20.60;;;14.52;;
32333;SDS011;18810;53.040;8.850;2022-08-26T13:16:37;24.30;;;15.32;;
32333;SDS011;18810;53.040;8.850;2022-08-26T13:19:06;21.77;;;14.95;;
32333;SDS011;18810;53.040;8.850;2022-08-26T13:21:35;21.83;;;13.68;;
32333;SDS011;18810;53.040;8.850;2022-08-26T13:24:07;20.23;;;14.55;;
32333;SDS011;18810;53.040;8.850;2022-08-26T13:26:36;18.30;;;13.13;;
32333;SDS011;18810;53.040;8.850;2022-08-26T13:29:03;18.40;;;12.60;;
32333;SDS011;18810;53.040;8.850;2022-08-26T13:31:29;18.25;;;11.85;;
32333;SDS011;18810;53.040;8.850;2022-08-26T13:33:56;14.60;;;11.88;;
32333;SDS011;18810;53.040;8.850;2022-08-26T13:36:22;14.43;;;11.88;;
32333;SDS011;18810;53.040;8.850;2022-08-26T13:38:48;15.02;;;13.43;;
32333;SDS011;18810;53.040;8.850;2022-08-26T13:41:28;13.75;;;12.30;;
32333;SDS011;18810;53.040;8.850;2022-08-26T13:43:55;15.18;;;12.52;;
32333;SDS011;18810;53.040;8.850;2022-08-26T13:46:23;20.52;;;15.20;;
32333;SDS011;18810;53.040;8.850;2022-08-26T13:48:51;24.90;;;19.08;;
32333;SDS011;18810;53.040;8.850;2022-08-26T13:51:18;22.60;;;18.27;;
32333;SDS011;18810;53.040;8.850;2022-08-26T13:53:46;23.48;;;18.33;;
32333;SDS011;18810;53.040;8.850;2022-08-26T13:56:12;26.15;;;19.55;;
32333;SDS011;18810;53.040;8.850;2022-08-26T13:58:38;21.17;;;18.65;;
32333;SDS011;18810;53.040;8.850;2022-08-26T14:01:05;36.10;;;23.90;;
32333;SDS011;18810;53.040;8.850;2022-08-26T14:03:31;29.58;;;21.65;;
32333;SDS011;18810;53.040;8.850;2022-08-26T14:05:57;28.98;;;20.48;;
32333;SDS011;18810;53.040;8.850;2022-08-26T14:08:23;20.70;;;15.85;;
32333;SDS011;18810;53.040;8.850;2022-08-26T14:10:50;16.92;;;11.55;;
32333;SDS011;18810;53.040;8.850;2022-08-26T14:13:16;20.45;;;10.32;;
32333;SDS011;18810;53.040;8.850;2022-08-26T14:15:42;11.07;;;9.60;;
32333;SDS011;18810;53.040;8.850;2022-08-26T14:18:09;13.88;;;10.75;;
32333;SDS011;18810;53.040;8.850;2022-08-26T14:20:37;13.38;;;11.70;;
32333;SDS011;18810;53.040;8.850;2022-08-26T14:23:03;12.95;;;11.68;;
32333;SDS011;18810;53.040;8.850;2022-08-26T14:25:29;16.92;;;13.02;;
32333;SDS011;18810;53.040;8.850;2022-08-26T14:30:26;10.27;;;9.00;;
32333;SDS011;18810;53.040;8.850;2022-08-26T14:32:53;11.55;;;8.48;;
32333;SDS011;18810;53.040;8.850;2022-08-26T14:35:21;10.80;;;8.88;;
32333;SDS011;18810;53.040;8.850;2022-08-26T14:37:49;9.65;;;8.60;;
32333;SDS011;18810;53.040;8.850;2022-08-26T14:40:16;10.90;;;8.95;;
32333;SDS011;18810;53.040;8.850;2022-08-26T14:42:44;11.65;;;8.98;;
32333;SDS011;18810;53.040;8.850;2022-08-26T14:45:13;15.15;;;10.18;;
32333;SDS011;18810;53.040;8.850;2022-08-26T14:47:42;14.10;;;10.43;;
32333;SDS011;18810;53.040;8.850;2022-08-26T14:50:09;14.20;;;10.52;;
32333;SDS011;18810;53.040;8.850;2022-08-26T14:52:35;13.43;;;11.05;;
32333;SDS011;18810;53.040;8.850;2022-08-26T14:55:21;16.00;;;11.52;;
32333;SDS011;18810;53.040;8.850;2022-08-26T14:57:47;17.60;;;12.07;;
32333;SDS011;18810;53.040;8.850;2022-08-26T15:00:14;21.17;;;14.57;;
32333;SDS011;18810;53.040;8.850;2022-08-26T15:02:40;24.85;;;17.02;;
32333;SDS011;18810;53.040;8.850;2022-08-26T15:05:06;36.55;;;23.75;;
32333;SDS011;18810;53.040;8.850;2022-08-26T15:07:34;35.00;;;25.63;;
32333;SDS011;18810;53.040;8.850;2022-08-26T15:10:01;44.75;;;27.45;;
32333;SDS011;18810;53.040;8.850;2022-08-26T15:12:27;44.45;;;29.27;;
32333;SDS011;18810;53.040;8.850;2022-08-26T15:14:52;37.85;;;26.15;;
32333;SDS011;18810;53.040;8.850;2022-08-26T15:17:18;41.45;;;27.92;;
32333;SDS011;18810;53.040;8.850;2022-08-26T15:19:44;46.33;;;28.40;;
32333;SDS011;18810;53.040;8.850;2022-08-26T15:22:11;38.22;;;25.20;;
32333;SDS011;18810;53.040;8.850;2022-08-26T15:24:37;38.05;;;25.40;;
32333;SDS011;18810;53.040;8.850;2022-08-26T15:27:02;40.50;;;25.58;;
32333;SDS011;18810;53.040;8.850;2022-08-26T15:29:28;34.28;;;21.92;;
32333;SDS011;18810;53.040;8.850;2022-08-26T15:31:54;37.38;;;23.20;;
32333;SDS011;18810;53.040;8.850;2022-08-26T15:34:21;41.17;;;23.55;;
32333;SDS011;18810;53.040;8.850;2022-08-26T15:36:46;35.45;;;24.17;;
32333;SDS011;18810;53.040;8.850;2022-08-26T15:39:13;34.65;;;22.77;;
32333;SDS011;18810;53.040;8.850;2022-08-26T15:41:41;31.48;;;22.40;;
32333;SDS011;18810;53.040;8.850;2022-08-26T15:44:07;32.35;;;22.52;;
32333;SDS011;18810;53.040;8.850;2022-08-26T15:46:34;34.90;;;22.30;;
32333;SDS011;18810;53.040;8.850;2022-08-26T15:49:00;28.45;;;19.80;;
32333;SDS011;18810;53.040;8.850;2022-08-26T15:51:34;35.63;;;21.42;;
32333;SDS011;18810;53.040;8.850;2022-08-26T15:54:01;30.15;;;19.65;;
32333;SDS011;18810;53.040;8.850;2022-08-26T15:56:29;34.80;;;21.35;;
32333;SDS011;18810;53.040;8.850;2022-08-26T15:58:56;30.52;;;21.60;;
32333;SDS011;18810;53.040;8.850;2022-08-26T16:01:23;30.88;;;20.73;;
32333;SDS011;18810;53.040;8.850;2022-08-26T16:03:51;33.28;;;21.55;;
32333;SDS011;18810;53.040;8.850;2022-08-26T16:06:18;33.67;;;20.13;;
32333;SDS011;18810;53.040;8.850;2022-08-26T16:08:47;42.05;;;23.35;;
32333;SDS011;18810;53.040;8.850;2022-08-26T16:11:14;35.95;;;21.85;;
32333;SDS011;18810;53.040;8.850;2022-08-26T16:13:42;40.50;;;24.85;;
32333;SDS011;18810;53.040;8.850;2022-08-26T16:16:08;38.17;;;25.83;;